Impacts TAF Board INFO
IDs:

KSAN - San Diego Intl Arpt, CA, US

Issued at 1135 UTC 11 Dec 2016
Updated at 1154 UTC 11 Dec 2016
Potential Impact None Slight Moderate High
Time1151Z 11/12Z 11/13Z 11/14Z 11/15Z 11/16Z 11/17Z 11/18Z 11/19Z 11/20Z 11/21Z 11/22Z 11/23Z 12/00Z
Type OBS PRVL PRVL PRVL PRVL PRVL PRVL PRVL PRVL PRVL PRVL PRVL PRVL PRVL
VIS 7 6 6 6 6 6 6 >6 >6 >6 >6 >6 >6 >6
CIG 25 12 12 12 12 12 12 18 18 18 22 22 22 22
Cover OVC BKN BKN BKN BKN BKN BKN BKN BKN BKN BKN BKN BKN BKN
FltCat MVFR MVFR MVFR MVFR MVFR MVFR MVFR MVFR MVFR MVFR MVFR MVFR MVFR MVFR
WX -- -DZ BR -DZ BR -DZ BR -DZ BR -DZ BR -DZ BR -- -- -- -- -- -- --
WDir VRB VRB VRB VRB VRB VRB VRB VRB VRB VRB 280 280 280 280
WSpd 0 5 5 5 5 5 5 6 6 6 9 9 9 9
WGst -- -- -- -- -- -- -- -- -- -- -- -- -- --

Raw TAF
KSAN 111135Z 1112/1218 VRB05KT 6SM -DZ BR BKN012
  FM111800 VRB06KT P6SM BKN018 BKN150
  FM112100 28009KT P6SM BKN022
  FM120200 VRB04KT 6SM BR OVC012
  FM121700 VRB06KT P6SM BKN022


Raw METAR
KSAN 111151Z 00000KT 7SM FEW009 SCT016 OVC025 15/13 A3012 RMK AO2 SLP199 T01500133 58007 $
KSAN 111051Z 00000KT 7SM FEW009 BKN016 OVC027 15/13 A3013 RMK AO2 SLP201 T01500133
KSAN 111026Z 00000KT 6SM BR FEW009 BKN015 OVC027 15/14 A3014 RMK AO2 T01500139
KSAN 110951Z 00000KT 8SM FEW009 BKN014 OVC028 16/13 A3014 RMK AO2 SLP205 T01560133
KSAN 110927Z 12003KT 8SM FEW004 SCT009 BKN014 16/13 A3013 RMK AO2 T01560133
KSAN 110851Z 00000KT 6SM BR FEW004 BKN009 OVC014 16/14 A3014 RMK AO2 SLP206 T01560139 58006

METAR Board
Radar Display
Forecast Discussion